createdAt,value
2023-03-15T00:00:07.566Z,100617.16
2023-03-15T00:00:29.629Z,100633.72
2023-03-15T00:01:03.583Z,100629.31
2023-03-15T00:01:32.468Z,100633.63
2023-03-15T00:02:00.574Z,100619.75
2023-03-15T00:02:54.628Z,100627.47
2023-03-15T00:03:20.314Z,100541.28
2023-03-15T00:03:43.631Z,100637.06
2023-03-15T00:04:12.409Z,100608.31
2023-03-15T00:04:49.404Z,100638.84
2023-03-15T00:05:16.252Z,100632.66
2023-03-15T00:06:19.509Z,100600.69
2023-03-15T00:06:47.689Z,100633.94
2023-03-15T00:07:19.015Z,100638.03
2023-03-15T00:08:05.566Z,100646.75
2023-03-15T00:08:55.329Z,100634.50
2023-03-15T00:09:21.538Z,100646.63
2023-03-15T00:09:49.570Z,100639.56
2023-03-15T00:10:18.130Z,100645.78
2023-03-15T00:10:47.024Z,100645.91
2023-03-15T00:11:13.955Z,100647.59
2023-03-15T00:11:38.444Z,100638.00
2023-03-15T00:12:13.838Z,100639.69
2023-03-15T00:12:39.653Z,100639.50
2023-03-15T00:13:14.992Z,100650.06
2023-03-15T00:13:55.244Z,100631.75
2023-03-15T00:14:22.432Z,100647.41
2023-03-15T00:14:48.419Z,100612.53
2023-03-15T00:15:17.028Z,100641.34
2023-03-15T00:15:46.188Z,100622.22
2023-03-15T00:16:11.052Z,100647.38
2023-03-15T00:16:34.459Z,100650.09
2023-03-15T00:17:16.038Z,100652.72
2023-03-15T00:18:00.995Z,100647.47
2023-03-15T00:19:44.911Z,100646.63
2023-03-15T00:20:32.394Z,100646.75
2023-03-15T00:21:13.257Z,100629.06
2023-03-15T00:21:35.180Z,100654.09
2023-03-15T00:21:57.984Z,100643.59
2023-03-15T00:22:19.583Z,100657.63
2023-03-15T00:22:41.427Z,100650.59
2023-03-15T00:23:03.116Z,100658.50
2023-03-15T00:23:26.438Z,100654.97
2023-03-15T00:23:48.520Z,100655.78
2023-03-15T00:24:11.130Z,100647.94
2023-03-15T00:24:32.757Z,100660.09
2023-03-15T00:24:55.570Z,100650.91
2023-03-15T00:25:17.186Z,100655.28
2023-03-15T00:25:38.857Z,100652.66
2023-03-15T00:26:00.491Z,100656.16
2023-03-15T00:26:24.620Z,100663.91
2023-03-15T00:26:47.581Z,100648.19
2023-03-15T00:27:09.617Z,100655.88
2023-03-15T00:27:32.689Z,100634.03
2023-03-15T00:27:54.438Z,100663.78
2023-03-15T00:28:17.501Z,100636.69
2023-03-15T00:28:40.796Z,100653.31
2023-03-15T00:29:02.511Z,100664.63
2023-03-15T00:29:26.827Z,100644.50
2023-03-15T00:29:50.155Z,100663.72
2023-03-15T00:30:12.357Z,100647.88
2023-03-15T00:30:34.418Z,100659.34
2023-03-15T00:31:07.285Z,100653.13
2023-03-15T00:31:30.801Z,100639.97
2023-03-15T00:31:53.480Z,100655.69
2023-03-15T00:32:16.746Z,100648.59
2023-03-15T00:32:39.386Z,100659.91
2023-03-15T00:33:01.070Z,100657.25
2023-03-15T00:33:22.699Z,100662.63
2023-03-15T00:33:45.150Z,100653.75
2023-03-15T00:34:07.750Z,100645.16
2023-03-15T00:34:29.393Z,100658.16
2023-03-15T00:34:54.630Z,100658.09
2023-03-15T00:35:18.315Z,100656.38
2023-03-15T00:35:42.373Z,100652.81
2023-03-15T00:36:05.907Z,100658.94
2023-03-15T00:36:27.593Z,100660.66
2023-03-15T00:36:53.822Z,100655.34
2023-03-15T00:37:16.714Z,100657.03
2023-03-15T00:37:38.877Z,100655.19
2023-03-15T00:38:00.794Z,100656.16
2023-03-15T00:38:22.473Z,100659.75
2023-03-15T00:38:45.177Z,100658.88
2023-03-15T00:39:07.093Z,100666.78
2023-03-15T00:39:28.726Z,100662.53
2023-03-15T00:39:50.378Z,100659.94
2023-03-15T00:40:12.959Z,100661.75
2023-03-15T00:40:40.460Z,100651.31
2023-03-15T00:41:05.516Z,100654.72
2023-03-15T00:41:27.122Z,100655.63
2023-03-15T00:41:48.973Z,100659.13
2023-03-15T00:42:11.923Z,100660.81
2023-03-15T00:42:35.975Z,100654.81
2023-03-15T00:42:58.229Z,100661.75
2023-03-15T00:43:19.797Z,100668.75
2023-03-15T00:43:46.345Z,100666.09
2023-03-15T00:44:08.385Z,100667.81
2023-03-15T00:44:31.450Z,100668.72
2023-03-15T00:44:54.544Z,100666.00
2023-03-15T00:45:17.229Z,100662.41
2023-03-15T00:45:39.967Z,100662.56
2023-03-15T00:46:02.317Z,100660.81
2023-03-15T00:46:24.031Z,100665.13
2023-03-15T00:46:45.689Z,100658.94
2023-03-15T00:47:08.590Z,100655.44
2023-03-15T00:47:31.410Z,100665.00
2023-03-15T00:47:55.053Z,100675.59
2023-03-15T00:48:16.772Z,100663.47
2023-03-15T00:48:40.768Z,100662.56
2023-03-15T00:49:04.235Z,100667.69
2023-03-15T00:49:25.932Z,100667.66
2023-03-15T00:49:48.154Z,100663.25
2023-03-15T00:50:11.423Z,100644.91
2023-03-15T00:50:33.124Z,100664.00
2023-03-15T00:51:02.389Z,100665.66
2023-03-15T00:51:24.563Z,100668.38
2023-03-15T00:51:48.325Z,100672.78
2023-03-15T00:52:12.538Z,100669.25
2023-03-15T00:52:35.911Z,100670.91
2023-03-15T00:52:57.686Z,100668.41
2023-03-15T00:53:22.559Z,100663.09
2023-03-15T00:53:46.299Z,100659.75
2023-03-15T00:54:07.872Z,100658.81
2023-03-15T00:54:29.636Z,100664.84
2023-03-15T00:54:54.921Z,100663.88
2023-03-15T00:55:19.191Z,100649.84
2023-03-15T00:55:43.068Z,100661.97
2023-03-15T00:56:06.504Z,100665.53
2023-03-15T00:56:30.194Z,100654.31
2023-03-15T00:56:53.915Z,100664.31
2023-03-15T00:57:15.606Z,100666.31
2023-03-15T00:57:37.180Z,100670.72
2023-03-15T00:58:00.009Z,100662.66
2023-03-15T00:58:24.274Z,100666.47
2023-03-15T00:58:48.797Z,100655.91
2023-03-15T00:59:10.721Z,100670.81
2023-03-15T00:59:34.791Z,100669.00
2023-03-15T00:59:58.577Z,100668.00
2023-03-15T01:00:24.196Z,100666.19
2023-03-15T01:00:47.384Z,100664.31
2023-03-15T01:01:14.763Z,100673.91
2023-03-15T01:01:44.580Z,100659.81
2023-03-15T01:02:06.451Z,100670.22
2023-03-15T01:02:28.179Z,100671.19
2023-03-15T01:02:55.501Z,100666.88
2023-03-15T01:03:20.458Z,100658.09
2023-03-15T01:03:55.525Z,100658.97
2023-03-15T01:04:51.197Z,100653.53
2023-03-15T01:05:59.425Z,100670.91
2023-03-15T01:06:30.207Z,100660.56
2023-03-15T01:07:07.136Z,100675.41
2023-03-15T01:08:06.396Z,100677.97
2023-03-15T01:08:44.512Z,100667.47
2023-03-15T01:09:48.625Z,100671.81
2023-03-15T01:10:20.619Z,100678.16
2023-03-15T01:10:43.815Z,100688.53
2023-03-15T01:11:13.664Z,100655.44
2023-03-15T01:11:37.121Z,100660.63
2023-03-15T01:11:59.206Z,100685.97
2023-03-15T01:12:20.838Z,100680.59
2023-03-15T01:12:53.538Z,100679.72
2023-03-15T01:13:15.134Z,100668.44
2023-03-15T01:14:23.092Z,100676.19
2023-03-15T01:14:45.054Z,100672.81
2023-03-15T01:15:08.835Z,100666.25
2023-03-15T01:15:30.498Z,100670.66
2023-03-15T01:15:54.877Z,100669.03
2023-03-15T01:16:16.563Z,100671.59
2023-03-15T01:16:38.214Z,100663.59
2023-03-15T01:16:59.917Z,100667.88
2023-03-15T01:17:22.819Z,100677.50
2023-03-15T01:17:44.737Z,100674.88
2023-03-15T01:18:06.412Z,100675.66
2023-03-15T01:18:29.418Z,100681.84
2023-03-15T01:18:53.873Z,100680.06
2023-03-15T01:19:16.103Z,100682.63
2023-03-15T01:19:37.761Z,100682.56
2023-03-15T01:19:59.944Z,100681.59
2023-03-15T01:20:21.806Z,100653.69
2023-03-15T01:20:46.320Z,100677.19
2023-03-15T01:21:10.992Z,100685.09
2023-03-15T01:21:32.687Z,100678.16
2023-03-15T01:21:54.359Z,100680.94
2023-03-15T01:22:16.252Z,100683.66
2023-03-15T01:22:38.889Z,100677.50
2023-03-15T01:23:01.975Z,100686.22
2023-03-15T01:23:24.028Z,100675.75
2023-03-15T01:23:45.713Z,100670.56
2023-03-15T01:24:13.115Z,100684.72
2023-03-15T01:24:34.754Z,100681.28
2023-03-15T01:24:59.205Z,100680.41
2023-03-15T01:25:20.887Z,100675.19
2023-03-15T01:25:43.494Z,100675.91
2023-03-15T01:26:07.179Z,100673.28
2023-03-15T01:26:29.039Z,100680.22
2023-03-15T01:26:51.701Z,100686.47
2023-03-15T01:27:13.692Z,100682.16
2023-03-15T01:27:36.689Z,100679.53
2023-03-15T01:27:58.379Z,100682.88
2023-03-15T01:28:19.956Z,100675.09
2023-03-15T01:28:42.018Z,100689.91
2023-03-15T01:29:04.646Z,100685.50
2023-03-15T01:29:28.261Z,100674.09
2023-03-15T01:29:50.386Z,100688.94
2023-03-15T01:30:12.608Z,100668.81
2023-03-15T01:30:36.210Z,100677.50
2023-03-15T01:30:59.868Z,100695.75
2023-03-15T01:31:23.533Z,100693.97
2023-03-15T01:31:45.440Z,100696.63
2023-03-15T01:32:08.504Z,100688.78
2023-03-15T01:32:30.419Z,100694.16
2023-03-15T01:32:52.080Z,100689.97
2023-03-15T01:33:14.058Z,100699.59
2023-03-15T01:33:36.642Z,100696.88
2023-03-15T01:33:59.480Z,100693.34
2023-03-15T01:34:23.356Z,100681.09
2023-03-15T01:34:44.973Z,100695.03
2023-03-15T01:35:07.738Z,100679.28
2023-03-15T01:35:30.427Z,100702.84
2023-03-15T01:35:59.139Z,100692.28
2023-03-15T01:36:21.149Z,100694.06
2023-03-15T01:36:42.820Z,100694.88
2023-03-15T01:37:05.460Z,100686.22
2023-03-15T01:37:34.442Z,100701.81
2023-03-15T01:37:56.289Z,100683.56
2023-03-15T01:38:18.954Z,100700.94
2023-03-15T01:38:40.674Z,100689.66
2023-03-15T01:39:03.426Z,100696.53
2023-03-15T01:39:33.962Z,100702.75
2023-03-15T01:39:57.037Z,100703.69
2023-03-15T01:40:19.211Z,100702.78
2023-03-15T01:40:42.404Z,100695.75
2023-03-15T01:41:04.700Z,100704.47
2023-03-15T01:41:28.786Z,100697.47
2023-03-15T01:41:51.832Z,100701.81
2023-03-15T01:42:13.486Z,100705.44
2023-03-15T01:42:51.306Z,100708.22
2023-03-15T01:43:20.719Z,100710.94
2023-03-15T01:43:47.250Z,100699.50
2023-03-15T01:44:13.787Z,100704.69
2023-03-15T01:44:56.443Z,100706.44
2023-03-15T01:46:06.857Z,100698.69
2023-03-15T01:46:34.248Z,100710.94
2023-03-15T01:47:06.772Z,100696.97
2023-03-15T01:47:32.776Z,100721.56
2023-03-15T01:47:54.485Z,100714.63
2023-03-15T01:48:17.890Z,100706.72
2023-03-15T01:48:44.506Z,100706.06
2023-03-15T01:49:09.537Z,100709.72
2023-03-15T01:49:34.969Z,100711.72
2023-03-15T01:50:03.531Z,100722.31
2023-03-15T01:50:25.432Z,100713.00
2023-03-15T01:50:47.432Z,100699.25
2023-03-15T01:51:16.798Z,100713.00
2023-03-15T01:51:43.801Z,100711.16
2023-03-15T01:52:10.015Z,100723.38
2023-03-15T01:52:52.432Z,100718.84
2023-03-15T01:53:14.970Z,100717.16
2023-03-15T01:53:40.683Z,100716.16
2023-03-15T01:54:06.866Z,100726.75
2023-03-15T01:54:32.249Z,100676.91
2023-03-15T01:55:01.154Z,100704.03
2023-03-15T01:55:24.062Z,100728.50
2023-03-15T01:55:59.386Z,100724.06
2023-03-15T01:56:30.564Z,100722.19
2023-03-15T01:56:58.240Z,100717.78
2023-03-15T01:57:24.096Z,100721.22
2023-03-15T01:57:49.785Z,100720.34
2023-03-15T01:58:13.498Z,100715.28
2023-03-15T01:58:41.250Z,100719.66
2023-03-15T01:59:08.674Z,100727.94
2023-03-15T01:59:33.582Z,100727.06
2023-03-15T02:00:03.741Z,100729.06
2023-03-15T02:00:35.873Z,100691.63
2023-03-15T02:01:03.245Z,100697.59
2023-03-15T02:01:27.755Z,100724.59
2023-03-15T02:01:52.309Z,100721.91
2023-03-15T02:02:15.098Z,100700.94
2023-03-15T02:02:46.482Z,100713.94
2023-03-15T02:03:18.586Z,100725.28
2023-03-15T02:03:47.570Z,100719.34
2023-03-15T02:04:16.465Z,100722.19
2023-03-15T02:04:46.738Z,100717.09
2023-03-15T02:05:13.997Z,100724.97
2023-03-15T02:05:45.934Z,100716.22
2023-03-15T02:06:11.264Z,100727.66
2023-03-15T02:07:00.096Z,100696.97
2023-03-15T02:07:27.072Z,100728.34
2023-03-15T02:07:50.712Z,100720.38
2023-03-15T02:08:17.719Z,100730.88
2023-03-15T02:08:47.666Z,100720.28
2023-03-15T02:09:15.012Z,100738.63
2023-03-15T02:09:51.249Z,100732.44
2023-03-15T02:10:17.109Z,100732.38
2023-03-15T02:10:44.050Z,100735.75
2023-03-15T02:11:06.410Z,100726.13
2023-03-15T02:11:29.772Z,100732.22
2023-03-15T02:11:52.606Z,100726.88
2023-03-15T02:12:14.399Z,100728.59
2023-03-15T02:12:40.483Z,100741.75
2023-03-15T02:13:04.244Z,100741.72
2023-03-15T02:13:28.805Z,100737.31
2023-03-15T02:13:55.004Z,100725.25
2023-03-15T02:14:17.078Z,100730.44
2023-03-15T02:14:40.922Z,100727.72
2023-03-15T02:15:07.704Z,100736.41
2023-03-15T02:15:32.415Z,100745.16
2023-03-15T02:15:56.628Z,100736.56
2023-03-15T02:16:29.972Z,100737.59
2023-03-15T02:17:00.521Z,100734.06
2023-03-15T02:17:34.926Z,100739.34
2023-03-15T02:18:00.082Z,100737.50
2023-03-15T02:18:22.226Z,100740.13
2023-03-15T02:18:48.896Z,100731.41
2023-03-15T02:19:22.197Z,100738.31
2023-03-15T02:19:53.013Z,100706.09
2023-03-15T02:20:27.388Z,100731.38
2023-03-15T02:20:57.278Z,100743.66
2023-03-15T02:21:32.266Z,100741.88
2023-03-15T02:22:02.663Z,100743.59
2023-03-15T02:22:37.530Z,100727.84
2023-03-15T02:23:04.324Z,100745.28
2023-03-15T02:23:28.382Z,100743.47
2023-03-15T02:23:59.669Z,100748.75
2023-03-15T02:24:32.111Z,100749.63
2023-03-15T02:25:03.099Z,100743.44
2023-03-15T02:25:37.597Z,100747.84
2023-03-15T02:26:09.512Z,100737.59
2023-03-15T02:26:42.202Z,100728.03
2023-03-15T02:27:04.085Z,100737.81
2023-03-15T02:27:30.531Z,100737.84
2023-03-15T02:27:52.269Z,100737.94
2023-03-15T02:28:17.465Z,100721.34
2023-03-15T02:28:40.014Z,100740.56
2023-03-15T02:29:01.716Z,100742.34
2023-03-15T02:29:26.637Z,100713.53
2023-03-15T02:29:48.333Z,100734.44
2023-03-15T02:30:12.690Z,100730.03
2023-03-15T02:30:35.457Z,100736.13
2023-03-15T02:30:58.137Z,100709.91
2023-03-15T02:31:20.709Z,100688.06
2023-03-15T02:31:45.401Z,100734.25
2023-03-15T02:32:08.799Z,100732.44
2023-03-15T02:32:31.041Z,100702.75
2023-03-15T02:32:52.788Z,100728.94
2023-03-15T02:33:20.188Z,100727.19
2023-03-15T02:33:44.058Z,100724.53
2023-03-15T02:34:07.632Z,100728.00
2023-03-15T02:34:29.720Z,100738.53
2023-03-15T02:34:52.605Z,100734.09
2023-03-15T02:35:23.814Z,100730.56
2023-03-15T02:35:47.542Z,100734.09
2023-03-15T02:36:20.868Z,100734.16
2023-03-15T02:36:43.808Z,100728.00
2023-03-15T02:37:06.961Z,100729.81
2023-03-15T02:37:28.591Z,100733.38
2023-03-15T02:37:51.404Z,100729.16
2023-03-15T02:38:13.022Z,100734.47
2023-03-15T02:38:34.623Z,100731.84
2023-03-15T02:38:56.976Z,100732.72
2023-03-15T02:39:21.266Z,100724.00
2023-03-15T02:39:42.846Z,100729.16
2023-03-15T02:40:17.969Z,100727.41
2023-03-15T02:40:40.070Z,100731.78
2023-03-15T02:41:03.697Z,100729.22
2023-03-15T02:41:29.856Z,100737.28
2023-03-15T02:41:54.539Z,100727.66
2023-03-15T02:42:17.659Z,100718.00
2023-03-15T02:42:42.458Z,100736.44
2023-03-15T02:43:08.897Z,100737.31
2023-03-15T02:43:32.985Z,100738.19
2023-03-15T02:44:00.027Z,100739.09
2023-03-15T02:44:26.075Z,100735.56
2023-03-15T02:44:49.158Z,100740.84
2023-03-15T02:45:12.428Z,100733.81
2023-03-15T02:45:37.188Z,100739.94
2023-03-15T02:45:59.721Z,100738.19
2023-03-15T02:46:22.468Z,100742.53
2023-03-15T02:46:47.698Z,100734.63
2023-03-15T02:47:13.756Z,100726.78
2023-03-15T02:47:35.522Z,100732.94
2023-03-15T02:47:57.319Z,100733.91
2023-03-15T02:48:21.340Z,100733.09
2023-03-15T02:48:44.223Z,100734.00
2023-03-15T02:49:08.260Z,100726.97
2023-03-15T02:49:32.782Z,100739.28
2023-03-15T02:49:55.725Z,100727.88
2023-03-15T02:50:17.979Z,100734.94
2023-03-15T02:50:39.878Z,100728.78
2023-03-15T02:51:03.100Z,100741.03
2023-03-15T02:51:29.385Z,100741.91
2023-03-15T02:51:52.135Z,100737.56
2023-03-15T02:52:14.124Z,100742.03
2023-03-15T02:52:35.960Z,100738.53
2023-03-15T02:52:59.024Z,100725.38
2023-03-15T02:53:20.643Z,100739.53
2023-03-15T02:53:43.574Z,100745.66
2023-03-15T02:54:05.367Z,100743.06
2023-03-15T02:54:27.950Z,100743.94
2023-03-15T02:54:49.749Z,100746.59
2023-03-15T02:55:11.447Z,100741.31
2023-03-15T02:55:33.355Z,100740.41
2023-03-15T02:55:56.005Z,100738.66
2023-03-15T02:56:17.738Z,100743.00
2023-03-15T02:56:39.410Z,100743.84
2023-03-15T02:57:01.593Z,100745.53
2023-03-15T02:57:24.942Z,100747.34
2023-03-15T02:57:50.790Z,100734.22
2023-03-15T02:58:16.282Z,100747.34
2023-03-15T02:58:51.682Z,100728.16
2023-03-15T02:59:36.469Z,100728.09
2023-03-15T03:00:17.028Z,100735.06
2023-03-15T03:00:53.637Z,100745.53
2023-03-15T03:01:21.382Z,100667.94
2023-03-15T03:02:08.322Z,100745.63
2023-03-15T03:02:33.292Z,100700.31
2023-03-15T03:03:01.781Z,100744.78
2023-03-15T03:03:27.248Z,100743.06
2023-03-15T03:04:02.132Z,100685.41
2023-03-15T03:04:29.422Z,100709.88
2023-03-15T03:04:53.819Z,100745.63
2023-03-15T03:05:21.173Z,100736.94
2023-03-15T03:05:48.892Z,100667.91
2023-03-15T03:06:18.354Z,100720.28
2023-03-15T03:06:49.417Z,100738.53
2023-03-15T03:07:21.100Z,100736.78
2023-03-15T03:07:57.497Z,100744.75
2023-03-15T03:08:22.817Z,100722.03
2023-03-15T03:08:47.153Z,100742.97
2023-03-15T03:09:11.219Z,100741.16
2023-03-15T03:09:34.716Z,100748.16
2023-03-15T03:09:56.960Z,100738.47
2023-03-15T03:10:22.037Z,100734.09
2023-03-15T03:10:51.404Z,100739.31
2023-03-15T03:11:13.675Z,100745.41
2023-03-15T03:11:35.807Z,100745.41
2023-03-15T03:11:57.679Z,100741.91
2023-03-15T03:12:20.662Z,100748.88
2023-03-15T03:12:43.182Z,100730.50
2023-03-15T03:13:06.205Z,100750.63
2023-03-15T03:13:31.013Z,100755.81
2023-03-15T03:13:53.743Z,100741.75
2023-03-15T03:14:15.906Z,100750.47
2023-03-15T03:14:37.627Z,100750.44
2023-03-15T03:15:05.925Z,100756.53
2023-03-15T03:15:28.572Z,100752.16
2023-03-15T03:15:58.393Z,100745.13
2023-03-15T03:16:23.155Z,100755.72
2023-03-15T03:16:45.299Z,100754.81
2023-03-15T03:17:08.557Z,100744.34
2023-03-15T03:17:30.434Z,100744.34
2023-03-15T03:17:52.031Z,100748.69
2023-03-15T03:18:13.860Z,100691.13
2023-03-15T03:18:38.107Z,100746.09
2023-03-15T03:19:01.326Z,100758.28
2023-03-15T03:19:26.042Z,100748.63
2023-03-15T03:19:48.764Z,100754.72
2023-03-15T03:20:15.608Z,100751.22
2023-03-15T03:20:40.992Z,100757.34
2023-03-15T03:21:04.178Z,100717.19
2023-03-15T03:21:25.867Z,100736.50
2023-03-15T03:21:48.776Z,100754.78
2023-03-15T03:22:13.519Z,100753.03
2023-03-15T03:22:36.084Z,100750.44
2023-03-15T03:22:58.491Z,100739.97
2023-03-15T03:23:22.262Z,100732.16
2023-03-15T03:23:46.207Z,100762.72
2023-03-15T03:24:10.024Z,100760.03
2023-03-15T03:24:32.305Z,100761.84
2023-03-15T03:24:57.222Z,100763.59
2023-03-15T03:25:19.137Z,100758.34
2023-03-15T03:25:42.343Z,100760.09
2023-03-15T03:26:12.090Z,100762.72
2023-03-15T03:26:35.143Z,100746.25
2023-03-15T03:26:57.961Z,100761.91
2023-03-15T03:27:22.702Z,100768.03
2023-03-15T03:27:44.535Z,100758.56
2023-03-15T03:28:10.800Z,100766.41
2023-03-15T03:28:33.150Z,100761.16
2023-03-15T03:28:56.275Z,100762.91
2023-03-15T03:29:20.092Z,100766.38
2023-03-15T03:29:45.232Z,100768.13
2023-03-15T03:30:10.178Z,100769.00
2023-03-15T03:30:36.311Z,100772.53
2023-03-15T03:30:58.490Z,100776.88
2023-03-15T03:31:23.986Z,100773.34
2023-03-15T03:31:47.108Z,100757.69
2023-03-15T03:32:09.698Z,100770.78
2023-03-15T03:32:32.744Z,100768.97
2023-03-15T03:32:55.507Z,100775.06
2023-03-15T03:33:17.233Z,100765.44
2023-03-15T03:33:42.281Z,100778.53
2023-03-15T03:34:04.048Z,100769.75
2023-03-15T03:34:26.639Z,100777.56
2023-03-15T03:34:48.557Z,100779.34
2023-03-15T03:35:16.051Z,100782.00
2023-03-15T03:35:37.945Z,100778.47
2023-03-15T03:36:04.002Z,100758.44
2023-03-15T03:36:25.886Z,100760.19
2023-03-15T03:36:48.484Z,100780.28
2023-03-15T03:37:15.107Z,100779.50
2023-03-15T03:37:54.614Z,100779.50
2023-03-15T03:38:24.453Z,100782.09
2023-03-15T03:38:51.473Z,100789.06
2023-03-15T03:39:13.232Z,100784.63
2023-03-15T03:39:35.767Z,100785.50
2023-03-15T03:39:59.669Z,100757.56
2023-03-15T03:40:21.461Z,100781.97
2023-03-15T03:40:43.153Z,100788.03
2023-03-15T03:41:05.414Z,100780.97
2023-03-15T03:41:29.372Z,100785.34
2023-03-15T03:41:51.291Z,100785.34
2023-03-15T03:42:14.345Z,100780.91
2023-03-15T03:42:36.108Z,100787.88
2023-03-15T03:42:58.632Z,100790.47
2023-03-15T03:43:22.630Z,100787.97
2023-03-15T03:43:44.542Z,100781.84
2023-03-15T03:44:06.340Z,100789.84
2023-03-15T03:44:28.204Z,100789.91
2023-03-15T03:44:50.619Z,100777.75
2023-03-15T03:45:16.387Z,100778.63
2023-03-15T03:45:40.187Z,100793.53
2023-03-15T03:46:03.752Z,100786.56
2023-03-15T03:46:28.452Z,100789.16
2023-03-15T03:46:51.613Z,100788.28
2023-03-15T03:47:13.311Z,100788.22
2023-03-15T03:47:35.015Z,100784.00
2023-03-15T03:47:56.674Z,100786.66
2023-03-15T03:48:19.279Z,100784.00
2023-03-15T03:48:40.994Z,100787.53
2023-03-15T03:49:02.914Z,100791.84
2023-03-15T03:49:24.847Z,100788.31
2023-03-15T03:49:47.524Z,100787.50
2023-03-15T03:50:10.802Z,100787.44
2023-03-15T03:50:32.517Z,100785.66
2023-03-15T03:50:57.403Z,100785.72
2023-03-15T03:51:20.068Z,100786.59
2023-03-15T03:51:41.618Z,100793.59
2023-03-15T03:52:04.707Z,100787.47
2023-03-15T03:52:28.984Z,100786.72
2023-03-15T03:52:59.528Z,100790.28
2023-03-15T03:53:26.307Z,100790.25
2023-03-15T03:53:47.932Z,100790.22
2023-03-15T03:54:09.557Z,100788.44
2023-03-15T03:54:32.192Z,100784.97
2023-03-15T03:54:56.378Z,100784.97
2023-03-15T03:55:18.574Z,100789.31
2023-03-15T03:55:42.627Z,100791.03
2023-03-15T03:56:05.178Z,100797.25
2023-03-15T03:56:26.869Z,100793.72
2023-03-15T03:56:50.797Z,100796.34
2023-03-15T03:57:12.746Z,100784.06
2023-03-15T03:57:35.929Z,100795.50
2023-03-15T03:58:00.206Z,100781.47
2023-03-15T03:58:53.254Z,100790.16
2023-03-15T03:59:24.182Z,100787.50
2023-03-15T03:59:54.043Z,100791.88
2023-03-15T04:00:17.781Z,100785.84
2023-03-15T04:00:40.073Z,100791.06
2023-03-15T04:01:04.934Z,100789.31
2023-03-15T04:01:32.188Z,100789.28
2023-03-15T04:01:54.150Z,100789.28
2023-03-15T04:02:15.900Z,100781.47
2023-03-15T04:02:43.779Z,100785.88
2023-03-15T04:03:08.477Z,100786.72
2023-03-15T04:03:33.264Z,100790.22
2023-03-15T04:04:01.472Z,100782.31
2023-03-15T04:04:26.216Z,100788.41
2023-03-15T04:04:50.302Z,100792.78
2023-03-15T04:05:14.035Z,100771.78
2023-03-15T04:05:36.228Z,100784.97
2023-03-15T04:05:59.626Z,100784.13
2023-03-15T04:06:24.147Z,100785.88
2023-03-15T04:06:46.202Z,100791.28
2023-03-15T04:07:09.928Z,100786.84
2023-03-15T04:07:34.276Z,100792.09
2023-03-15T04:07:56.895Z,100780.81
2023-03-15T04:08:19.014Z,100790.38
2023-03-15T04:08:41.030Z,100791.31
2023-03-15T04:09:04.981Z,100784.25
2023-03-15T04:09:37.217Z,100787.75
2023-03-15T04:09:59.691Z,100786.00
2023-03-15T04:10:26.963Z,100800.88
2023-03-15T04:10:53.129Z,100781.66
2023-03-15T04:11:17.538Z,100791.31
2023-03-15T04:11:43.830Z,100793.91
2023-03-15T04:12:06.340Z,100785.97
2023-03-15T04:12:29.272Z,100784.22
2023-03-15T04:12:52.474Z,100794.66
2023-03-15T04:13:14.348Z,100795.56
2023-03-15T04:13:36.050Z,100792.94
2023-03-15T04:14:02.541Z,100798.22
2023-03-15T04:14:25.696Z,100792.03
2023-03-15T04:14:48.283Z,100793.81
2023-03-15T04:15:11.937Z,100799.09
2023-03-15T04:15:35.056Z,100800.81
2023-03-15T04:15:57.520Z,100809.53
2023-03-15T04:16:24.689Z,100797.34
2023-03-15T04:16:56.399Z,100793.78
2023-03-15T04:17:19.318Z,100805.16
2023-03-15T04:17:40.967Z,100805.09
2023-03-15T04:18:05.683Z,100787.53
2023-03-15T04:18:34.552Z,100801.47
2023-03-15T04:18:57.245Z,100797.09
2023-03-15T04:19:19.494Z,100806.69
2023-03-15T04:19:41.109Z,100805.78
2023-03-15T04:20:06.932Z,100804.03
2023-03-15T04:20:35.783Z,100805.75
2023-03-15T04:20:58.151Z,100802.22
2023-03-15T04:21:23.009Z,100810.97
2023-03-15T04:21:52.990Z,100801.34
2023-03-15T04:22:22.662Z,100809.25
2023-03-15T04:23:15.388Z,100803.09
2023-03-15T04:23:52.678Z,100807.44
2023-03-15T04:24:42.174Z,100786.47
2023-03-15T04:25:09.942Z,100813.50
2023-03-15T04:25:49.832Z,100800.38
2023-03-15T04:26:28.529Z,100815.22
2023-03-15T04:27:18.197Z,100816.09
2023-03-15T04:27:59.222Z,100810.81
2023-03-15T04:28:39.038Z,100794.19
2023-03-15T04:29:31.025Z,100821.28
2023-03-15T04:30:12.782Z,100804.75
2023-03-15T04:30:43.682Z,100813.53
2023-03-15T04:31:27.471Z,100811.84
2023-03-15T04:32:09.479Z,100808.28
2023-03-15T04:32:42.568Z,100813.50
2023-03-15T04:33:12.208Z,100804.81
2023-03-15T04:33:55.273Z,100796.22
2023-03-15T04:34:43.632Z,100821.75
2023-03-15T04:35:29.941Z,100809.53
2023-03-15T04:36:08.258Z,100825.28
2023-03-15T04:36:54.656Z,100826.19
2023-03-15T04:37:33.853Z,100820.88
2023-03-15T04:38:10.003Z,100807.69
2023-03-15T04:38:51.837Z,100825.22
2023-03-15T04:39:30.663Z,100828.69
2023-03-15T04:40:19.646Z,100826.00
2023-03-15T04:40:48.878Z,100825.97
2023-03-15T04:41:30.062Z,100815.34
2023-03-15T04:42:00.851Z,100825.00
2023-03-15T04:42:41.050Z,100819.72
2023-03-15T04:43:10.933Z,100818.81
2023-03-15T04:43:44.910Z,100833.69
2023-03-15T04:44:30.420Z,100834.56
2023-03-15T04:45:12.345Z,100832.78
2023-03-15T04:46:03.974Z,100836.28
2023-03-15T04:46:36.030Z,100839.75
2023-03-15T04:47:20.675Z,100840.56
2023-03-15T04:47:52.774Z,100837.06
2023-03-15T04:48:32.429Z,100844.03
2023-03-15T04:49:15.266Z,100850.22
2023-03-15T04:49:55.305Z,100838.81
2023-03-15T04:50:26.061Z,100841.41
2023-03-15T04:51:10.605Z,100844.03
2023-03-15T04:51:49.287Z,100855.41
2023-03-15T04:52:22.655Z,100849.19
2023-03-15T04:53:07.878Z,100855.31
2023-03-15T04:53:52.132Z,100850.97
2023-03-15T04:54:23.343Z,100855.31
2023-03-15T04:54:52.761Z,100853.53
2023-03-15T04:55:37.171Z,100839.59
2023-03-15T04:56:31.269Z,100854.41
2023-03-15T04:57:07.107Z,100855.31
2023-03-15T04:57:47.463Z,100855.34
2023-03-15T04:58:28.739Z,100858.88
2023-03-15T04:59:10.666Z,100853.63
2023-03-15T05:00:04.181Z,100853.66
2023-03-15T05:00:34.598Z,100844.94
2023-03-15T05:01:02.020Z,100860.66
2023-03-15T05:01:44.588Z,100843.16
2023-03-15T05:02:23.358Z,100849.31
2023-03-15T05:02:56.451Z,100858.09
2023-03-15T05:03:34.424Z,100859.84
2023-03-15T05:04:24.668Z,100847.56
2023-03-15T05:05:09.006Z,100858.03
2023-03-15T05:05:49.667Z,100858.06
2023-03-15T05:06:27.615Z,100860.72
2023-03-15T05:07:00.523Z,100853.69
2023-03-15T05:07:45.430Z,100857.16
2023-03-15T05:08:27.407Z,100835.31
2023-03-15T05:09:07.615Z,100857.16
2023-03-15T05:09:46.620Z,100859.78
2023-03-15T05:10:31.612Z,100842.34
2023-03-15T05:11:12.636Z,100859.78